Time;durP1;ratioP1;P1;durP2;ratioP2;P2;SDS_P1;SDS_P2;PMS_P1;PMS_P2;Temp;Humidity;BMP_temperature;BMP_pressure;BME280_temperature;BME280_humidity;BME280_pressure;Samples;Min_cycle;Max_cycle;Signal;HPM_P1;HPM_P2
2022/09/23 00:00:34;;;;;;;8.13;3.25;;;;;;;11.47;90.00;100758.44;5048097;28;20037;-78
2022/09/23 00:02:59;;;;;;;8.27;3.60;;;;;;;10.85;89.84;100655.88;5028498;28;20053;-80
2022/09/23 00:05:26;;;;;;;8.32;3.63;;;;;;;10.32;90.49;100610.25;5047021;28;20049;-78
2022/09/23 00:07:51;;;;;;;5.82;3.58;;;;;;;11.29;90.90;100791.72;5029248;28;20053;-79
2022/09/23 00:10:17;;;;;;;9.40;3.40;;;;;;;10.66;90.36;100680.34;5046319;28;20820;-80
2022/09/23 00:12:43;;;;;;;4.15;2.33;;;;;;;10.86;86.85;100743.38;5027925;28;20033;-81
2022/09/23 00:15:10;;;;;;;8.00;2.28;;;;;;;11.07;86.35;100766.22;5027196;28;20041;-78
2022/09/23 00:17:35;;;;;;;5.50;2.10;;;;;;;10.63;86.12;100659.31;5024755;28;20624;-79
2022/09/23 00:20:01;;;;;;;5.05;3.08;;;;;;;10.17;85.16;100593.53;5027047;28;20053;-81
2022/09/23 00:22:26;;;;;;;6.82;2.33;;;;;;;11.34;85.49;100802.22;5018102;28;20037;-80
2022/09/23 00:24:52;;;;;;;2.80;2.05;;;;;;;11.33;85.87;100788.22;5023024;28;20469;-80
2022/09/23 00:27:19;;;;;;;4.90;2.22;;;;;;;11.00;85.60;100744.31;5028193;28;20036;-79
2022/09/23 00:29:45;;;;;;;8.55;2.30;;;;;;;10.26;85.65;100630.28;5033468;28;20079;-79
2022/09/23 00:32:11;;;;;;;4.28;2.40;;;;;;;10.27;85.62;100635.50;5031107;28;20041;-79
2022/09/23 00:34:36;;;;;;;4.40;2.05;;;;;;;9.43;86.87;100535.44;5033476;28;20053;-79
2022/09/23 00:37:02;;;;;;;7.45;3.08;;;;;;;10.94;87.09;100749.56;5033357;28;20033;-80
2022/09/23 00:39:27;;;;;;;4.43;2.50;;;;;;;10.31;87.94;100647.81;5033769;28;20043;-79
2022/09/23 00:41:53;;;;;;;6.03;2.95;;;;;;;10.13;88.86;100619.69;5015348;28;20041;-79
2022/09/23 00:44:48;;;;;;;7.10;2.72;;;;;;;10.76;89.42;100764.34;5033568;28;20480;-79
2022/09/23 00:47:20;;;;;;;4.35;2.70;;;;;;;10.85;90.49;100768.78;5033519;28;20561;-80
2022/09/23 00:49:52;;;;;;;4.68;2.20;;;;;;;10.85;90.16;100766.16;5033473;28;20054;-80
2022/09/23 00:52:22;;;;;;;3.83;2.53;;;;;;;10.68;90.34;100767.81;5007936;28;20455;-79
2022/09/23 00:54:51;;;;;;;6.43;3.30;;;;;;;10.74;91.15;100767.84;5023261;28;20037;-80
2022/09/23 00:57:19;;;;;;;5.45;3.15;;;;;;;9.94;89.98;100628.34;5033165;28;20457;-77
2022/09/23 00:59:45;;;;;;;5.93;3.42;;;;;;;9.94;90.84;100644.94;5018805;28;20475;-80
2022/09/23 01:02:13;;;;;;;6.38;2.10;;;;;;;10.44;91.13;100718.69;5052229;28;20132;-81
2022/09/23 01:04:39;;;;;;;5.68;3.13;;;;;;;10.15;92.20;100751.69;5036251;28;20037;-79
2022/09/23 01:07:05;;;;;;;5.28;2.38;;;;;;;10.24;92.00;100766.63;5033483;28;20048;-79
2022/09/23 01:09:31;;;;;;;5.82;3.03;;;;;;;9.97;92.29;100712.25;5034017;28;20033;-80
2022/09/23 01:12:02;;;;;;;5.30;2.60;;;;;;;10.35;91.66;100785.13;5018814;28;20061;-78
2022/09/23 01:15:02;;;;;;;4.97;2.75;;;;;;;10.49;90.25;100793.94;5013706;28;20060;-78
2022/09/23 01:17:46;;;;;;;4.55;2.83;;;;;;;10.64;89.40;100789.66;5011692;28;20046;-80
2022/09/23 01:20:33;;;;;;;5.18;2.58;;;;;;;10.76;89.55;100787.09;5013119;28;20728;-81
2022/09/23 01:23:10;;;;;;;9.75;3.28;;;;;;;10.80;90.72;100786.25;5001893;28;20050;-80
2022/09/23 01:25:54;;;;;;;3.97;2.50;;;;;;;10.02;91.37;100651.97;5013379;28;20049;-79
2022/09/23 01:28:47;;;;;;;7.32;3.28;;;;;;;10.82;91.53;100786.28;5013763;28;20121;-80
2022/09/23 01:31:25;;;;;;;4.20;2.10;;;;;;;9.75;89.96;100595.91;5013672;28;20479;-78
2022/09/23 01:33:56;;;;;;;4.82;2.90;;;;;;;10.85;89.03;100788.91;5014273;28;20112;-78
2022/09/23 01:36:41;;;;;;;6.82;2.60;;;;;;;10.73;89.63;100790.59;5014366;28;20057;-80
2022/09/23 01:39:17;;;;;;;5.35;3.53;;;;;;;10.66;89.54;100759.06;5014357;28;20140;-80
2022/09/23 01:41:53;;;;;;;7.00;3.30;;;;;;;10.63;90.54;100799.28;5011530;28;20140;-80
2022/09/23 01:44:41;;;;;;;6.35;3.75;;;;;;;10.82;90.42;100791.53;5010837;28;20045;-79
2022/09/23 01:47:16;;;;;;;6.32;3.40;;;;;;;10.78;89.90;100762.59;5010828;28;20500;-80
2022/09/23 01:50:02;;;;;;;5.38;3.42;;;;;;;10.65;89.97;100762.53;5011142;28;20061;-80
2022/09/23 01:52:37;;;;;;;5.80;3.05;;;;;;;11.06;90.22;100788.13;5010508;28;20046;-79
2022/09/23 01:55:11;;;;;;;6.03;3.35;;;;;;;10.90;89.96;100763.53;5001523;28;20060;-78
2022/09/23 01:57:47;;;;;;;6.22;3.53;;;;;;;10.12;91.09;100645.94;5010513;28;20045;-80
2022/09/23 02:00:16;;;;;;;11.80;3.85;;;;;;;10.47;90.85;100706.47;5010134;28;20072;-80
2022/09/23 02:03:25;;;;;;;5.15;2.45;;;;;;;11.06;90.52;100790.75;5009783;28;20049;-79
2022/09/23 02:06:07;;;;;;;6.90;3.08;;;;;;;10.91;90.07;100754.78;5029286;28;20053;-80
2022/09/23 02:08:56;;;;;;;6.05;3.42;;;;;;;11.06;90.08;100781.09;5029360;28;20123;-81
2022/09/23 02:11:23;;;;;;;6.53;3.63;;;;;;;11.01;89.45;100790.72;5019390;28;20129;-80
2022/09/23 02:14:01;;;;;;;8.25;3.30;;;;;;;10.50;89.02;100676.75;5011381;28;20425;-79
2022/09/23 02:16:32;;;;;;;6.30;3.30;;;;;;;11.36;89.64;100821.50;5029150;28;20076;-78
2022/09/23 02:19:01;;;;;;;5.95;3.08;;;;;;;11.32;88.80;100822.34;5028841;28;20021;-79
2022/09/23 02:21:32;;;;;;;6.68;3.50;;;;;;;10.44;89.51;100658.34;5036823;28;20065;-78
2022/09/23 02:24:14;;;;;;;5.85;3.20;;;;;;;11.18;89.82;100789.03;5022127;28;20033;-81
2022/09/23 02:26:40;;;;;;;8.40;4.63;;;;;;;11.18;89.23;100820.53;5009562;28;20536;-79
2022/09/23 02:29:20;;;;;;;4.55;2.78;;;;;;;11.31;89.06;100829.38;5010341;28;20050;-80
2022/09/23 02:32:11;;;;;;;5.63;2.60;;;;;;;11.40;88.69;100821.53;5024491;28;20096;-80
2022/09/23 02:35:06;;;;;;;4.90;2.47;;;;;;;11.09;86.23;100773.22;5009129;28;20062;-79
2022/09/23 02:37:47;;;;;;;4.80;2.67;;;;;;;11.49;87.05;100820.66;5009501;28;20050;-78
2022/09/23 02:40:24;;;;;;;6.05;3.33;;;;;;;11.54;86.20;100829.44;5009652;28;20050;-78
2022/09/23 02:43:08;;;;;;;5.32;2.67;;;;;;;11.12;84.88;100767.13;4992671;28;20038;-79
2022/09/23 02:45:36;;;;;;;4.93;2.58;;;;;;;10.53;86.18;100651.38;5009547;28;20046;-77
2022/09/23 02:48:25;;;;;;;5.03;2.60;;;;;;;11.51;86.11;100826.78;5015931;28;20463;-80
2022/09/23 02:50:52;;;;;;;12.27;3.53;;;;;;;10.52;86.84;100661.91;5048799;28;20049;-81
2022/09/23 02:53:17;;;;;;;7.20;3.15;;;;;;;10.81;86.16;100708.38;5000715;28;20419;-79
2022/09/23 02:55:43;;;;;;;5.55;3.10;;;;;;;11.54;85.38;100837.34;5025725;28;20077;-79
2022/09/23 02:58:12;;;;;;;7.80;3.63;;;;;;;11.15;84.75;100747.00;5010526;28;20796;-80
2022/09/23 03:00:48;;;;;;;6.53;3.08;;;;;;;10.73;85.12;100690.84;5029437;28;20040;-81
2022/09/23 03:03:33;;;;;;;3.90;2.90;;;;;;;11.61;86.06;100831.22;5028180;28;20088;-78
2022/09/23 03:06:07;;;;;;;6.15;2.67;;;;;;;11.15;87.53;100780.28;5028400;28;20072;-80
2022/09/23 03:08:44;;;;;;;8.75;3.90;;;;;;;10.63;86.29;100717.94;5028300;28;20096;-81
2022/09/23 03:11:12;;;;;;;5.18;2.70;;;;;;;11.61;85.32;100841.72;5028196;28;20049;-79
2022/09/23 03:13:46;;;;;;;5.28;2.97;;;;;;;11.53;84.72;100840.81;5028152;28;20037;-80
2022/09/23 03:16:18;;;;;;;5.38;3.38;;;;;;;10.60;84.74;100688.16;5028350;28;20049;-79
2022/09/23 03:18:54;;;;;;;7.38;3.70;;;;;;;11.39;85.21;100819.75;5026754;28;20383;-78
2022/09/23 03:21:30;;;;;;;7.65;3.40;;;;;;;11.49;85.08;100841.66;5028155;28;20132;-78
2022/09/23 03:23:59;;;;;;;5.72;3.00;;;;;;;10.53;85.21;100692.50;5027511;28;20049;-79
2022/09/23 03:26:35;;;;;;;8.10;3.67;;;;;;;10.15;86.39;100627.59;5028124;28;20135;-77
2022/09/23 03:29:06;;;;;;;5.00;2.50;;;;;;;11.51;85.84;100836.44;5027907;28;20076;-79
2022/09/23 03:31:33;;;;;;;3.80;2.60;;;;;;;11.59;84.41;100845.22;5028236;28;20529;-80
2022/09/23 03:34:02;;;;;;;5.63;3.00;;;;;;;10.99;86.01;100787.22;5028000;28;20045;-77
2022/09/23 03:36:50;;;;;;;7.38;3.58;;;;;;;11.15;86.13;100812.66;5028493;28;20164;-77
2022/09/23 03:39:39;;;;;;;7.07;3.05;;;;;;;11.43;86.94;100860.06;5009638;28;20421;-81
2022/09/23 03:42:12;;;;;;;4.68;2.95;;;;;;;11.28;86.56;100808.31;5027582;28;20088;-81
2022/09/23 03:44:43;;;;;;;6.10;3.08;;;;;;;10.85;87.25;100737.25;5027448;28;20068;-80
2022/09/23 03:47:11;;;;;;;7.07;4.50;;;;;;;11.59;86.99;100863.63;5047320;28;20049;-80
2022/09/23 03:49:38;;;;;;;6.35;3.15;;;;;;;11.49;86.35;100835.53;5047424;28;20516;-81
2022/09/23 03:52:04;;;;;;;7.40;4.15;;;;;;;10.78;86.13;100717.13;5037496;28;20084;-78
2022/09/23 03:54:30;;;;;;;7.75;3.50;;;;;;;11.27;87.78;100827.59;5014882;28;20041;-78
2022/09/23 03:56:57;;;;;;;7.28;3.83;;;;;;;11.16;88.72;100845.94;5026980;28;20052;-78
2022/09/23 03:59:26;;;;;;;6.32;4.38;;;;;;;11.39;88.49;100845.16;5027196;28;20132;-75
2022/09/23 04:01:53;;;;;;;5.07;2.75;;;;;;;11.13;87.90;100793.41;5026643;28;20041;-79
2022/09/23 04:04:18;;;;;;;9.95;3.80;;;;;;;11.60;87.34;100866.25;5016025;28;20057;-78
2022/09/23 04:06:44;;;;;;;5.75;3.67;;;;;;;11.57;87.22;100855.72;5007659;28;20038;-79
2022/09/23 04:09:10;;;;;;;7.22;4.07;;;;;;;11.49;87.96;100838.16;5007307;28;20069;-80
2022/09/23 04:11:36;;;;;;;9.45;4.07;;;;;;;10.84;88.38;100717.16;5007429;28;20085;-78
2022/09/23 04:14:02;;;;;;;14.50;5.32;;;;;;;11.38;88.54;100839.03;4989731;28;20516;-80
2022/09/23 04:16:27;;;;;;;10.05;4.30;;;;;;;11.32;87.96;100791.69;5007004;28;20111;-79
2022/09/23 04:18:53;;;;;;;11.35;3.83;;;;;;;11.29;87.82;100809.22;5005227;28;20136;-79
2022/09/23 04:21:18;;;;;;;7.32;4.30;;;;;;;11.34;88.03;100841.63;5007319;28;20029;-78
2022/09/23 04:23:45;;;;;;;6.90;4.78;;;;;;;10.63;87.52;100689.06;4978185;28;20056;-78
2022/09/23 04:26:11;;;;;;;10.25;4.47;;;;;;;11.20;86.62;100824.06;5006525;28;20046;-80
2022/09/23 04:28:37;;;;;;;15.88;4.57;;;;;;;11.50;88.21;100869.72;5006982;28;20148;-79
2022/09/23 04:31:04;;;;;;;5.20;3.95;;;;;;;11.42;88.25;100832.00;4996993;28;20486;-78
2022/09/23 04:33:30;;;;;;;7.13;4.30;;;;;;;10.60;86.81;100712.66;5006090;28;20033;-78
2022/09/23 04:35:56;;;;;;;7.53;4.45;;;;;;;11.57;88.22;100850.47;5006716;28;20042;-78
2022/09/23 04:38:21;;;;;;;7.78;4.13;;;;;;;11.61;87.18;100854.88;5006669;28;20096;-80
2022/09/23 04:40:47;;;;;;;8.13;4.78;;;;;;;11.32;86.85;100838.13;5006315;28;20136;-79
2022/09/23 04:43:15;;;;;;;6.57;4.07;;;;;;;11.30;87.42;100818.84;5006490;28;20190;-79
2022/09/23 04:45:41;;;;;;;8.27;4.00;;;;;;;10.66;87.56;100712.69;5006576;28;20049;-79
2022/09/23 04:48:08;;;;;;;9.23;5.32;;;;;;;10.89;88.70;100759.19;5005892;28;20076;-79
2022/09/23 04:50:34;;;;;;;7.60;4.20;;;;;;;11.24;88.39;100821.44;5005911;28;20525;-79
2022/09/23 04:53:01;;;;;;;8.18;4.13;;;;;;;11.16;87.55;100798.66;4994184;28;20058;-81
2022/09/23 04:55:27;;;;;;;8.23;4.93;;;;;;;11.31;87.47;100824.13;5001210;28;20117;-80
2022/09/23 04:57:52;;;;;;;10.38;4.18;;;;;;;11.62;85.60;100858.38;5005986;28;20514;-76
2022/09/23 05:00:18;;;;;;;10.15;4.78;;;;;;;11.68;85.23;100868.00;5006654;28;20049;-79
2022/09/23 05:02:45;;;;;;;17.23;6.82;;;;;;;11.13;83.53;100740.88;5006296;28;20494;-80
2022/09/23 05:05:11;;;;;;;6.95;3.95;;;;;;;11.66;84.41;100840.84;5023334;28;20049;-79
2022/09/23 05:07:37;;;;;;;13.57;4.32;;;;;;;10.88;84.17;100694.41;5025977;28;20072;-78
2022/09/23 05:10:03;;;;;;;16.30;6.55;;;;;;;11.56;82.96;100797.91;5025945;28;20037;-79
2022/09/23 05:12:29;;;;;;;13.50;5.20;;;;;;;10.95;84.25;100712.78;5026532;28;20397;-79
2022/09/23 05:14:55;;;;;;;11.43;5.35;;;;;;;11.24;83.99;100742.63;5010609;28;20049;-77
2022/09/23 05:17:20;;;;;;;8.50;5.88;;;;;;;11.64;80.47;100826.84;5034603;28;20480;-77
2022/09/23 05:19:46;;;;;;;7.63;4.22;;;;;;;11.62;81.52;100824.19;5052314;28;20041;-78
2022/09/23 05:22:11;;;;;;;10.05;4.80;;;;;;;11.58;81.04;100820.69;5039659;28;20054;-77
2022/09/23 05:24:37;;;;;;;13.55;5.90;;;;;;;11.13;80.96;100721.63;5024831;28;20481;-80
2022/09/23 05:27:04;;;;;;;10.13;6.03;;;;;;;11.99;80.68;100875.16;5030778;28;20068;-80
2022/09/23 05:29:30;;;;;;;13.20;6.80;;;;;;;11.73;79.70;100864.53;5030126;28;20122;-79
2022/09/23 05:31:56;;;;;;;8.40;5.68;;;;;;;11.33;80.69;100785.59;5029721;28;20049;-81
2022/09/23 05:34:28;;;;;;;13.88;5.95;;;;;;;11.20;80.38;100754.91;5029753;28;20045;-79
2022/09/23 05:36:53;;;;;;;17.45;7.35;;;;;;;11.17;79.38;100754.91;5029490;28;20140;-79
2022/09/23 05:39:19;;;;;;;12.18;6.60;;;;;;;11.43;78.28;100786.50;5029883;28;20025;-79
2022/09/23 05:41:45;;;;;;;13.57;6.40;;;;;;;11.83;77.83;100875.97;5029421;28;20072;-78
2022/09/23 05:44:10;;;;;;;12.27;7.00;;;;;;;12.07;78.51;100876.91;5028872;28;20060;-79
2022/09/23 05:46:36;;;;;;;8.15;6.07;;;;;;;12.13;78.99;100884.81;5011343;28;20073;-80
2022/09/23 05:49:03;;;;;;;11.07;6.45;;;;;;;11.30;77.46;100750.53;5029529;28;20038;-78
2022/09/23 05:51:29;;;;;;;7.68;4.95;;;;;;;12.28;77.52;100897.97;5029711;28;20388;-79
2022/09/23 05:53:57;;;;;;;9.98;5.68;;;;;;;11.77;76.31;100837.38;5010546;28;20484;-77
2022/09/23 05:56:24;;;;;;;9.05;5.63;;;;;;;12.19;77.81;100877.78;5011839;28;20060;-77
2022/09/23 05:58:51;;;;;;;8.48;5.55;;;;;;;11.40;77.13;100731.28;5029035;28;20116;-78
2022/09/23 06:01:26;;;;;;;7.97;5.05;;;;;;;12.22;77.34;100897.94;5011196;28;20050;-80
2022/09/23 06:04:07;;;;;;;6.53;4.90;;;;;;;12.08;75.75;100837.47;5027427;28;20847;-79
2022/09/23 06:06:38;;;;;;;8.15;5.53;;;;;;;12.25;74.42;100861.13;5008924;28;20084;-79
2022/09/23 06:09:05;;;;;;;11.10;3.22;;;;;;;12.56;74.14;100896.22;5008908;28;20046;-78
2022/09/23 06:11:32;;;;;;;5.63;3.63;;;;;;;11.66;74.96;100752.38;5008838;28;20049;-79
2022/09/23 06:14:02;;;;;;;8.00;3.72;;;;;;;11.47;75.71;100722.56;5008946;28;20046;-77
2022/09/23 06:16:30;;;;;;;8.05;4.47;;;;;;;12.24;74.33;100826.06;5009324;28;20088;-79
2022/09/23 06:18:59;;;;;;;7.32;3.70;;;;;;;11.85;73.39;100755.88;5006953;28;20073;-78
2022/09/23 06:21:24;;;;;;;11.18;4.22;;;;;;;12.41;73.34;100860.25;5009383;28;20038;-79
2022/09/23 06:23:50;;;;;;;15.88;5.43;;;;;;;11.99;73.62;100758.56;4997602;28;20042;-79
2022/09/23 06:26:16;;;;;;;9.90;5.80;;;;;;;11.98;73.50;100827.78;5007783;28;20057;-80
2022/09/23 06:28:42;;;;;;;10.35;4.25;;;;;;;12.38;73.81;100849.72;5008638;28;20629;-78
2022/09/23 06:31:13;;;;;;;8.80;5.53;;;;;;;12.67;73.41;100878.66;5008410;28;20449;-78
2022/09/23 06:33:41;;;;;;;10.32;3.47;;;;;;;12.66;72.25;100857.59;5009250;28;20168;-78
2022/09/23 06:36:07;;;;;;;10.82;5.28;;;;;;;11.98;71.52;100730.47;5007647;28;20058;-78
2022/09/23 06:38:33;;;;;;;7.45;3.78;;;;;;;13.16;70.12;100914.59;5008879;28;20509;-79
2022/09/23 06:40:58;;;;;;;8.23;4.25;;;;;;;13.00;70.68;100887.38;4990445;28;20593;-79
2022/09/23 06:43:25;;;;;;;8.27;5.53;;;;;;;12.83;71.41;100899.69;5008617;28;20061;-80
2022/09/23 06:45:54;;;;;;;6.20;5.10;;;;;;;11.92;71.81;100760.31;5008972;28;20046;-79
2022/09/23 06:48:21;;;;;;;9.82;4.82;;;;;;;12.48;70.47;100782.19;5008897;28;20057;-80
2022/09/23 06:50:49;;;;;;;12.18;5.50;;;;;;;13.10;69.36;100896.13;5008333;28;20045;-79
2022/09/23 06:53:16;;;;;;;6.35;4.20;;;;;;;13.40;68.28;100910.16;4995306;28;20053;-79
2022/09/23 06:55:42;;;;;;;8.23;4.15;;;;;;;12.82;68.66;100779.44;5004956;28;20053;-81
2022/09/23 06:58:08;;;;;;;11.00;4.45;;;;;;;13.60;68.00;100895.13;5008166;28;20030;-81
2022/09/23 07:00:34;;;;;;;7.35;3.78;;;;;;;13.38;68.02;100904.00;5008182;28;20057;-80
2022/09/23 07:03:00;;;;;;;6.25;3.92;;;;;;;13.18;68.12;100870.66;4990392;28;20073;-79
2022/09/23 07:05:26;;;;;;;5.50;3.17;;;;;;;13.67;67.51;100909.13;5021832;28;20470;-78
2022/09/23 07:07:52;;;;;;;5.32;3.53;;;;;;;12.71;67.65;100762.81;5027893;28;20100;-78
2022/09/23 07:10:18;;;;;;;5.95;4.45;;;;;;;13.84;67.78;100931.06;5026807;28;20038;-79
2022/09/23 07:12:43;;;;;;;7.85;4.65;;;;;;;13.48;67.01;100848.56;5028063;28;20158;-80
2022/09/23 07:15:09;;;;;;;11.13;4.35;;;;;;;13.40;67.63;100884.66;5027842;28;20116;-77
2022/09/23 07:17:36;;;;;;;7.97;3.72;;;;;;;13.72;68.31;100916.16;5025388;28;20068;-79
2022/09/23 07:20:02;;;;;;;10.15;4.65;;;;;;;13.79;66.64;100937.22;5027719;28;20069;-79
2022/09/23 07:22:28;;;;;;;6.32;3.60;;;;;;;12.91;66.82;100768.88;5020710;28;20053;-80
2022/09/23 07:24:56;;;;;;;8.48;5.20;;;;;;;13.82;68.07;100945.13;5023498;28;20087;-79
2022/09/23 07:27:24;;;;;;;6.10;3.85;;;;;;;13.59;69.24;100905.69;5028097;28;20034;-79
2022/09/23 07:29:50;;;;;;;5.82;3.92;;;;;;;13.64;68.90;100930.25;5008385;28;20124;-79
2022/09/23 07:32:16;;;;;;;7.60;4.88;;;;;;;13.80;68.08;100908.19;5016997;28;20132;-79
2022/09/23 07:34:43;;;;;;;7.60;4.13;;;;;;;12.85;68.23;100803.13;5019144;28;20056;-78
2022/09/23 07:37:09;;;;;;;21.27;5.05;;;;;;;13.28;67.80;100813.56;5045607;28;20033;-79
2022/09/23 07:39:42;;;;;;;8.57;4.47;;;;;;;14.22;67.44;100947.56;5047573;28;20040;-78
2022/09/23 07:42:13;;;;;;;7.13;4.93;;;;;;;13.48;67.02;100832.75;5047013;28;20053;-78
2022/09/23 07:44:39;;;;;;;14.35;4.72;;;;;;;13.70;67.32;100923.19;5046728;28;20076;-79
2022/09/23 07:47:05;;;;;;;7.82;4.47;;;;;;;13.20;66.90;100836.38;5022120;28;20049;-78
2022/09/23 07:49:30;;;;;;;8.20;3.42;;;;;;;13.48;67.51;100813.44;5027256;28;20049;-80
2022/09/23 07:51:56;;;;;;;13.52;4.78;;;;;;;13.89;65.96;100886.19;5006749;28;21804;-77
2022/09/23 07:54:24;;;;;;;6.80;3.78;;;;;;;13.22;66.78;100803.88;5013705;28;20037;-78
2022/09/23 07:56:49;;;;;;;7.90;5.15;;;;;;;14.38;67.28;100945.69;5008758;28;20053;-78
2022/09/23 07:59:17;;;;;;;12.00;4.93;;;;;;;13.99;65.84;100826.31;5026843;28;20520;-81
2022/09/23 08:01:46;;;;;;;7.35;4.43;;;;;;;14.65;65.56;100937.56;5008993;28;20045;-80
2022/09/23 08:04:16;;;;;;;14.10;8.57;;;;;;;14.86;65.04;100952.34;5026462;28;20057;-79
2022/09/23 08:06:53;;;;;;;9.15;4.70;;;;;;;14.07;64.10;100798.09;5020508;28;20052;-78
2022/09/23 08:09:20;;;;;;;6.57;3.60;;;;;;;14.44;64.34;100871.69;5006920;28;20046;-78
2022/09/23 08:11:46;;;;;;;10.65;4.35;;;;;;;14.82;63.21;100918.94;5006718;28;20057;-77
2022/09/23 08:14:13;;;;;;;6.53;3.05;;;;;;;13.84;64.67;100867.75;4997151;28;20061;-77
2022/09/23 08:16:40;;;;;;;7.20;2.90;;;;;;;14.65;64.15;100916.44;5015195;28;20132;-76
2022/09/23 08:19:06;;;;;;;6.45;3.50;;;;;;;14.48;64.37;100900.69;5018963;28;20037;-77
2022/09/23 08:21:32;;;;;;;5.38;2.47;;;;;;;14.88;62.98;100915.34;5009553;28;20037;-78
2022/09/23 08:23:57;;;;;;;9.32;4.13;;;;;;;14.78;62.66;100936.56;4984956;28;20050;-79
2022/09/23 08:26:23;;;;;;;6.28;3.72;;;;;;;14.70;62.66;100942.81;5005988;28;20747;-79
2022/09/23 08:28:53;;;;;;;7.45;3.10;;;;;;;14.46;61.99;100838.22;5006848;28;20133;-78
2022/09/23 08:31:20;;;;;;;4.05;2.33;;;;;;;13.82;63.46;100824.66;5006413;28;20053;-77
2022/09/23 08:33:46;;;;;;;8.05;3.38;;;;;;;14.47;62.18;100929.75;5005671;28;20372;-77
2022/09/23 08:36:11;;;;;;;4.25;2.50;;;;;;;14.35;62.28;100820.75;5006199;28;20491;-77
2022/09/23 08:38:37;;;;;;;5.13;2.80;;;;;;;14.28;61.30;100794.38;5006345;28;20115;-78
2022/09/23 08:41:25;;;;;;;6.38;2.95;;;;;;;15.48;61.56;100934.09;4988411;28;20082;-81
2022/09/23 08:44:00;;;;;;;5.25;2.55;;;;;;;14.28;60.76;100805.84;4956785;28;20182;-78
2022/09/23 08:46:39;;;;;;;4.88;2.97;;;;;;;15.21;60.78;100935.28;4986412;28;20817;-77
2022/09/23 08:49:08;;;;;;;6.80;3.33;;;;;;;14.03;62.54;100807.81;4988139;28;20041;-78
2022/09/23 08:51:45;;;;;;;7.57;3.10;;;;;;;15.02;62.26;100896.72;4990987;28;20494;-78
2022/09/23 08:54:12;;;;;;;3.75;2.30;;;;;;;14.78;61.11;100811.53;4994897;28;20046;-78
2022/09/23 08:56:41;;;;;;;8.55;3.78;;;;;;;14.50;60.45;100792.44;5009564;28;20527;-79
2022/09/23 08:59:39;;;;;;;8.32;4.40;;;;;;;15.17;61.41;100933.56;5020181;28;20080;-78
2022/09/23 09:02:20;;;;;;;11.18;3.80;;;;;;;14.91;61.14;100863.38;5010367;28;20493;-79
2022/09/23 09:04:55;;;;;;;8.35;2.75;;;;;;;15.05;60.90;100842.03;4997544;28;20058;-78
2022/09/23 09:07:28;;;;;;;6.47;2.55;;;;;;;15.45;60.02;100928.81;5010418;28;20061;-79
2022/09/23 09:09:59;;;;;;;7.40;3.22;;;;;;;15.05;59.83;100908.13;5010226;28;20512;-79
2022/09/23 09:12:40;;;;;;;6.22;3.47;;;;;;;15.09;60.58;100923.06;5029098;28;20060;-78
2022/09/23 09:15:09;;;;;;;7.18;2.90;;;;;;;14.41;62.01;100851.47;5030124;28;20115;-79
2022/09/23 09:17:47;;;;;;;12.52;3.47;;;;;;;15.12;62.14;100915.09;5010108;28;20042;-79
2022/09/23 09:20:37;;;;;;;5.38;2.60;;;;;;;14.86;61.23;100917.13;5030187;28;20501;-78
2022/09/23 09:23:21;;;;;;;8.73;3.72;;;;;;;15.34;60.64;100923.69;4994322;28;20061;-79
2022/09/23 09:25:53;;;;;;;6.20;3.30;;;;;;;15.28;59.35;100904.38;5022858;28;20103;-77
2022/09/23 09:28:41;;;;;;;6.72;3.05;;;;;;;15.66;58.41;100925.03;5012104;28;20439;-80
2022/09/23 09:31:30;;;;;;;5.78;2.85;;;;;;;15.60;58.33;100925.16;5029542;28;20029;-78
2022/09/23 09:34:04;;;;;;;7.25;3.40;;;;;;;15.07;60.20;100898.41;5029674;28;20712;-78
2022/09/23 09:36:41;;;;;;;5.90;3.55;;;;;;;15.37;60.97;100928.06;5030178;28;20049;-78
2022/09/23 09:39:12;;;;;;;9.25;3.40;;;;;;;15.53;59.91;100905.81;5028253;28;20068;-77
2022/09/23 09:41:44;;;;;;;7.93;3.15;;;;;;;15.60;59.18;100935.72;5029168;28;20060;-78
2022/09/23 09:44:33;;;;;;;6.93;3.20;;;;;;;15.41;59.56;100919.19;5029431;28;20053;-77
2022/09/23 09:47:08;;;;;;;5.88;2.53;;;;;;;14.73;59.16;100773.75;5029543;28;20045;-78
2022/09/23 09:49:44;;;;;;;16.63;4.35;;;;;;;15.15;58.81;100840.19;5011492;28;20084;-77
2022/09/23 09:52:19;;;;;;;7.03;3.20;;;;;;;15.21;59.55;100914.13;5025541;28;20461;-79
2022/09/23 09:54:45;;;;;;;6.47;3.67;;;;;;;14.56;59.83;100883.06;5010899;28;20370;-79
2022/09/23 09:57:33;;;;;;;7.93;3.22;;;;;;;15.13;60.15;100900.13;5028855;28;20067;-78
2022/09/23 10:00:18;;;;;;;6.53;2.85;;;;;;;14.82;60.23;100807.97;5026181;28;20037;-80
2022/09/23 10:02:45;;;;;;;10.48;6.38;;;;;;;15.32;59.27;100891.09;5010840;28;20128;-78
2022/09/23 10:05:46;;;;;;;7.97;3.22;;;;;;;15.81;57.95;100902.84;5028053;28;20062;-78
2022/09/23 10:08:33;;;;;;;5.10;2.88;;;;;;;15.76;57.63;100896.75;5025103;28;20037;-79
2022/09/23 10:11:02;;;;;;;6.65;2.55;;;;;;;15.77;56.73;100882.63;5028420;28;20092;-78
2022/09/23 10:13:29;;;;;;;9.80;3.15;;;;;;;16.03;56.09;100840.75;5028374;28;20107;-79
2022/09/23 10:16:02;;;;;;;13.40;2.63;;;;;;;15.50;55.37;100669.56;5010793;28;20033;-78
2022/09/23 10:18:46;;;;;;;11.20;3.30;;;;;;;16.84;54.76;100918.03;5027742;28;20107;-80
2022/09/23 10:21:14;;;;;;;4.93;2.55;;;;;;;16.64;54.42;100867.97;5028635;28;20051;-80
2022/09/23 10:23:45;;;;;;;7.03;3.20;;;;;;;16.50;56.09;100872.66;5001330;28;20060;-79
2022/09/23 10:26:17;;;;;;;4.53;2.35;;;;;;;16.30;55.63;100859.75;5028413;28;20049;-78
2022/09/23 10:28:51;;;;;;;9.27;2.58;;;;;;;16.13;55.48;100896.22;5010031;28;20053;-80
2022/09/23 10:31:26;;;;;;;7.78;2.67;;;;;;;15.80;56.87;100911.66;5028487;28;20042;-77
2022/09/23 10:34:00;;;;;;;5.25;2.75;;;;;;;16.24;56.50;100860.72;5028611;28;20525;-77
2022/09/23 10:36:28;;;;;;;6.55;3.58;;;;;;;16.62;55.19;100898.97;5011179;28;20438;-77
2022/09/23 10:47:48;;;;;;;5.75;3.03;;;;;;;16.11;55.91;100883.00;5027935;28;20176;-78
2022/09/23 10:50:36;;;;;;;4.10;2.60;;;;;;;16.36;55.43;100874.66;5028773;28;20152;-78
2022/09/23 10:53:05;;;;;;;8.20;3.05;;;;;;;16.58;55.39;100877.84;5015962;28;20532;-80
2022/09/23 10:55:51;;;;;;;5.75;3.10;;;;;;;16.57;55.54;100850.44;5023054;28;20493;-79
2022/09/23 10:58:46;;;;;;;13.50;3.22;;;;;;;16.45;55.60;100858.63;5029862;28;20496;-79
2022/09/23 11:01:23;;;;;;;6.03;3.25;;;;;;;16.06;55.44;100857.50;5034507;28;20049;-78
2022/09/23 11:04:00;;;;;;;6.25;3.65;;;;;;;15.96;56.70;100857.63;5012747;28;20033;-78
2022/09/23 11:06:59;;;;;;;6.70;2.92;;;;;;;15.89;56.20;100860.41;4992693;28;20066;-79
2022/09/23 11:09:41;;;;;;;5.40;3.20;;;;;;;16.04;56.34;100846.94;5008992;28;20082;-80
2022/09/23 11:12:26;;;;;;;5.63;2.90;;;;;;;16.40;56.01;100847.22;4987334;28;20042;-79
2022/09/23 11:15:04;;;;;;;6.03;3.70;;;;;;;16.81;55.63;100837.69;5015463;28;20081;-78
2022/09/23 11:17:43;;;;;;;5.85;2.53;;;;;;;17.02;54.30;100837.28;4987909;28;20042;-79
2022/09/23 11:20:38;;;;;;;5.00;2.95;;;;;;;16.95;53.49;100822.41;4972129;28;20052;-82
2022/09/23 11:23:19;;;;;;;3.67;2.03;;;;;;;17.27;52.60;100837.66;4928970;28;20529;-77
2022/09/23 11:26:13;;;;;;;5.13;3.03;;;;;;;17.68;51.51;100825.28;5009445;28;20176;-78
2022/09/23 11:28:56;;;;;;;20.75;2.35;;;;;;;18.11;50.99;100826.94;4998167;28;20052;-78
2022/09/23 11:31:31;;;;;;;5.43;3.10;;;;;;;17.73;51.64;100810.13;5008695;28;20052;-78
2022/09/23 11:34:24;;;;;;;11.93;2.67;;;;;;;16.50;52.93;100818.81;5011532;28;20030;-79
2022/09/23 11:36:58;;;;;;;5.80;2.38;;;;;;;16.79;52.50;100810.38;5009950;28;20048;-78
2022/09/23 11:39:38;;;;;;;6.20;2.38;;;;;;;15.81;53.44;100678.78;5011155;28;20078;-78
2022/09/23 11:42:11;;;;;;;3.97;2.28;;;;;;;16.02;52.89;100652.84;5010701;28;20524;-79
2022/09/23 11:44:52;;;;;;;4.05;2.05;;;;;;;16.04;54.44;100763.09;5011600;28;20042;-80
2022/09/23 11:47:45;;;;;;;6.05;2.67;;;;;;;16.52;54.28;100793.16;5008898;28;20050;-79
2022/09/23 11:50:20;;;;;;;5.68;2.28;;;;;;;15.80;54.21;100662.94;5013277;28;20125;-78
2022/09/23 11:52:57;;;;;;;3.53;1.88;;;;;;;16.31;54.14;100668.16;5005885;28;20090;-79
2022/09/23 11:55:35;;;;;;;3.63;1.75;;;;;;;17.11;52.34;100772.56;5021794;28;20042;-78